CheckWX is a tool to help pilots better visualize weather data.  It is not intended as a substitute for an official pre-flight weather briefing.

07:00:35 UTC

KDIJ TAF
Driggs-Reed Memorial Airport
Driggs, Idaho, USA
KDIJ 230525Z 2306/2406 VRB05KT P6SM FEW160 FM240000 18011KT P6SM VCSH SCT050 TEMPO 2404/2405 24020G30KT 1SM -SN BR SCT010 BKN020 FM240500 31011KT 6SM -SHSN BKN030 AMD LTD TO CLD VIS AND WIND

Feb-23@
06:00 UTC

Feb-23 @ 06:00 UTC

Feb-24@
00:00 UTC

Feb-24 @ 00:00 UTC

KDIJ 230525Z 2306/2406 VRB05KT P6SM FEW160
Wind
  • Variable at 5 KTS
Cloud Levels
  • Few at 16,000' AGL

Feb-24@
00:00 UTC

Feb-24 @ 00:00 UTC

Feb-24@
05:00 UTC

Feb-24 @ 05:00 UTC

FM240000 18011KT P6SM VCSH SCT050

From

From Standard forecast or significant change

Wind
  • 180° at 11 KTS
Cloud Levels
  • Scattered at 5,000' AGL

Feb-24@
04:00 UTC

Feb-24 @ 04:00 UTC

Feb-24@
05:00 UTC

Feb-24 @ 05:00 UTC

TEMPO 2404/2405 24020G30KT 1SM -SN BR SCT010 BKN020

Temporary

Temporary Changes expected for less than half the time period

Wind
  • 240° at 20 KTS
  • {Gusting to 30 KTS
Conditions
Light Snow, Mist
Cloud Levels
  • Scattered at 1,000' AGL
  • Broken at 2,000' AGL

Feb-24@
05:00 UTC

Feb-24 @ 05:00 UTC

Feb-24@
06:00 UTC

Feb-24 @ 06:00 UTC

FM240500 31011KT 6SM -SHSN BKN030 AMD LTD TO CLD VIS AND WIND

From

From Standard forecast or significant change

Wind
  • 310° at 11 KTS
Conditions
Light Snow
Cloud Levels
  • Broken at 3,000' AGL